createdAt,value
2023-04-25T00:01:07.283Z,99008.19
2023-04-25T00:02:39.474Z,98996.88
2023-04-25T00:04:13.671Z,98992.56
2023-04-25T00:05:46.701Z,98993.50
2023-04-25T00:07:21.192Z,98987.56
2023-04-25T00:08:54.405Z,98990.97
2023-04-25T00:10:26.507Z,99000.53
2023-04-25T00:11:58.603Z,98998.75
2023-04-25T00:13:30.928Z,98995.38
2023-04-25T00:15:03.159Z,98996.31
2023-04-25T00:16:36.537Z,98999.81
2023-04-25T00:18:09.341Z,98999.81
2023-04-25T00:19:41.778Z,99005.22
2023-04-25T00:21:13.788Z,99006.91
2023-04-25T00:22:45.909Z,99005.25
2023-04-25T00:24:18.081Z,99002.66
2023-04-25T00:25:51.024Z,99014.09
2023-04-25T00:27:23.116Z,99014.09
2023-04-25T00:28:55.222Z,99008.13
2023-04-25T00:30:27.327Z,99004.69
2023-04-25T00:31:59.592Z,98997.81
2023-04-25T00:33:31.748Z,98990.91
2023-04-25T00:35:04.104Z,98988.44
2023-04-25T00:36:36.335Z,98992.78
2023-04-25T00:38:08.393Z,98990.19
2023-04-25T00:39:40.508Z,98990.38
2023-04-25T00:41:13.240Z,98985.13
2023-04-25T00:42:46.172Z,98985.13
2023-04-25T00:44:18.436Z,98982.59
2023-04-25T00:45:52.626Z,98980.00
2023-04-25T00:47:25.474Z,98978.38
2023-04-25T00:48:57.533Z,98964.59
2023-04-25T00:50:29.569Z,98980.97
2023-04-25T00:53:36.222Z,98965.63
2023-04-25T00:55:08.937Z,98961.16
2023-04-25T00:56:41.201Z,98959.53
2023-04-25T00:58:13.248Z,98965.56
2023-04-25T00:59:47.201Z,98960.25
2023-04-25T01:01:19.293Z,98956.84
2023-04-25T01:02:51.925Z,98951.75
2023-04-25T01:04:24.520Z,98949.97
2023-04-25T01:05:56.773Z,98946.59
2023-04-25T01:07:28.897Z,98934.44
2023-04-25T01:09:01.186Z,98925.88
2023-04-25T01:10:33.273Z,98924.97
2023-04-25T01:12:05.767Z,98916.25
2023-04-25T01:13:37.985Z,98916.41
2023-04-25T01:15:10.397Z,98914.69
2023-04-25T01:16:42.833Z,98924.31
2023-04-25T01:18:15.060Z,98925.25
2023-04-25T01:19:50.404Z,98919.19
2023-04-25T01:21:22.409Z,98924.53
2023-04-25T01:22:54.812Z,98921.13
2023-04-25T01:24:27.303Z,98920.41
2023-04-25T01:25:59.373Z,98922.22
2023-04-25T01:27:31.625Z,98924.19
2023-04-25T01:29:05.685Z,98922.22
2023-04-25T01:30:37.775Z,98914.59
2023-04-25T01:32:10.151Z,98916.00
2023-04-25T01:33:42.302Z,98910.69
2023-04-25T01:35:14.416Z,98903.66
2023-04-25T01:36:46.825Z,98904.34
2023-04-25T01:38:21.252Z,98901.84
2023-04-25T01:39:54.119Z,98894.06
2023-04-25T01:41:26.662Z,98904.34
2023-04-25T01:42:58.743Z,98901.75
2023-04-25T01:44:30.892Z,98897.50
2023-04-25T01:46:03.187Z,98899.25
2023-04-25T01:47:36.642Z,98892.25
2023-04-25T01:49:09.074Z,98896.56
2023-04-25T01:50:42.093Z,98892.03
2023-04-25T01:52:14.207Z,98889.63
2023-04-25T01:53:46.368Z,98893.78
2023-04-25T01:55:18.432Z,98886.13
2023-04-25T01:56:53.665Z,98883.88
2023-04-25T01:58:25.765Z,98877.00
2023-04-25T02:00:02.750Z,98881.16
2023-04-25T02:01:34.952Z,98878.69
2023-04-25T02:03:07.463Z,98876.06
2023-04-25T02:04:39.756Z,98877.06
2023-04-25T02:06:11.999Z,98880.44
2023-04-25T02:07:44.332Z,98877.00
2023-04-25T02:09:16.509Z,98874.47
2023-04-25T02:10:48.685Z,98862.41
2023-04-25T02:12:20.949Z,98867.66
2023-04-25T02:13:53.216Z,98865.97
2023-04-25T02:15:25.693Z,98863.50
2023-04-25T02:16:58.755Z,98864.53
2023-04-25T02:18:30.995Z,98861.22
2023-04-25T02:20:03.244Z,98866.50
2023-04-25T02:21:37.187Z,98865.75
2023-04-25T02:23:09.397Z,98863.13
2023-04-25T02:24:41.658Z,98866.56
2023-04-25T02:26:14.737Z,98862.28
2023-04-25T02:27:47.548Z,98863.13
2023-04-25T02:29:19.574Z,98861.38
2023-04-25T02:30:51.569Z,98864.81
2023-04-25T02:32:23.862Z,98854.56
2023-04-25T02:33:55.855Z,98846.78
2023-04-25T02:35:27.999Z,98850.31
2023-04-25T02:37:02.486Z,98854.63
2023-04-25T02:38:34.819Z,98857.44
2023-04-25T02:40:08.149Z,98851.31
2023-04-25T02:41:40.326Z,98855.66
2023-04-25T02:43:12.425Z,98853.97
2023-04-25T02:44:44.462Z,98850.59
2023-04-25T02:46:22.935Z,98849.03
2023-04-25T02:48:01.005Z,98847.56
2023-04-25T02:49:33.181Z,98861.53
2023-04-25T02:51:05.389Z,98854.56
2023-04-25T02:52:37.460Z,98857.22
2023-04-25T02:54:09.501Z,98847.69
2023-04-25T02:55:41.566Z,98856.34
2023-04-25T02:57:13.646Z,98858.16
2023-04-25T02:58:46.434Z,98856.44
2023-04-25T03:00:18.601Z,98863.41
2023-04-25T03:01:51.022Z,98855.72
2023-04-25T03:03:23.236Z,98856.50
2023-04-25T03:04:55.705Z,98855.63
2023-04-25T03:06:27.820Z,98859.97
2023-04-25T03:08:00.272Z,98857.44
2023-04-25T03:09:32.416Z,98862.47
2023-04-25T03:11:04.613Z,98860.81
2023-04-25T03:12:36.848Z,98862.56
2023-04-25T03:14:09.001Z,98858.25
2023-04-25T03:15:41.107Z,98860.91
2023-04-25T03:17:13.203Z,98863.59
2023-04-25T03:18:45.392Z,98865.34
2023-04-25T03:20:17.532Z,98857.53
2023-04-25T03:21:49.725Z,98861.84
2023-04-25T03:23:22.019Z,98860.13
2023-04-25T03:24:54.218Z,98856.72
2023-04-25T03:26:26.389Z,98862.16
2023-04-25T03:27:58.500Z,98859.66
2023-04-25T03:29:30.701Z,98853.75
2023-04-25T03:31:02.866Z,98855.63
2023-04-25T03:32:35.740Z,98859.97
2023-04-25T03:34:07.949Z,98866.09
2023-04-25T03:35:40.049Z,98859.16
2023-04-25T03:37:12.226Z,98861.78
2023-04-25T03:38:44.464Z,98855.03
2023-04-25T03:40:16.569Z,98858.56
2023-04-25T03:41:48.993Z,98857.78
2023-04-25T03:43:21.148Z,98856.13
2023-04-25T03:44:53.536Z,98853.63
2023-04-25T03:46:25.809Z,98856.31
2023-04-25T03:47:58.211Z,98851.28
2023-04-25T03:49:30.347Z,98860.97
2023-04-25T03:51:02.643Z,98851.56
2023-04-25T03:52:34.843Z,98860.34
2023-04-25T03:54:07.024Z,98853.56
2023-04-25T03:55:40.028Z,98862.25
2023-04-25T03:57:12.893Z,98858.75
2023-04-25T03:58:45.462Z,98858.97
2023-04-25T04:00:17.841Z,98867.63
2023-04-25T04:01:51.084Z,98854.72
2023-04-25T04:03:23.311Z,98853.03
2023-04-25T04:04:57.681Z,98854.66
2023-04-25T04:06:30.184Z,98856.53
2023-04-25T04:08:02.259Z,98855.59
2023-04-25T04:09:34.447Z,98864.19
2023-04-25T04:11:06.560Z,98870.38
2023-04-25T04:12:39.151Z,98868.91
2023-04-25T04:14:11.931Z,98873.53
2023-04-25T04:15:43.987Z,98862.56
2023-04-25T04:17:16.093Z,98865.38
2023-04-25T04:18:48.285Z,98872.44
2023-04-25T04:20:21.318Z,98867.25
2023-04-25T04:21:53.446Z,98867.34
2023-04-25T04:23:25.925Z,98877.75
2023-04-25T04:24:58.226Z,98874.19
2023-04-25T04:26:30.465Z,98876.78
2023-04-25T04:28:02.819Z,98877.56
2023-04-25T04:29:34.927Z,98886.13
2023-04-25T04:31:07.095Z,98886.81
2023-04-25T04:32:39.695Z,98879.69
2023-04-25T04:34:12.137Z,98882.09
2023-04-25T04:35:44.521Z,98882.84
2023-04-25T04:37:16.967Z,98886.88
2023-04-25T04:38:49.271Z,98883.16
2023-04-25T04:40:23.838Z,98874.16
2023-04-25T04:41:55.957Z,98881.69
2023-04-25T04:43:28.036Z,98883.91
2023-04-25T04:45:00.164Z,98881.00
2023-04-25T04:46:39.088Z,98881.53
2023-04-25T04:48:13.322Z,98889.09
2023-04-25T04:49:46.048Z,98881.94
2023-04-25T04:51:18.111Z,98878.16
2023-04-25T04:52:50.191Z,98872.56
2023-04-25T04:54:22.318Z,98880.88
2023-04-25T04:55:54.649Z,98882.22
2023-04-25T04:57:27.238Z,98886.94
2023-04-25T04:58:59.906Z,98885.63
2023-04-25T05:00:32.366Z,98881.72
2023-04-25T05:02:04.487Z,98878.78
2023-04-25T05:03:36.782Z,98884.50
2023-04-25T05:05:09.448Z,98893.56
2023-04-25T05:06:41.963Z,98879.34
2023-04-25T05:08:14.238Z,98881.47
2023-04-25T05:09:46.428Z,98883.56
2023-04-25T05:11:18.560Z,98882.38
2023-04-25T05:12:50.687Z,98886.41
2023-04-25T05:14:24.277Z,98878.41
2023-04-25T05:15:56.366Z,98879.84
2023-04-25T05:17:28.535Z,98883.91
2023-04-25T05:19:00.763Z,98881.88
2023-04-25T05:20:32.900Z,98873.75
2023-04-25T05:22:05.281Z,98871.63
2023-04-25T05:23:37.399Z,98867.06
2023-04-25T05:25:10.906Z,98869.13
2023-04-25T05:26:43.106Z,98865.28
2023-04-25T05:28:15.184Z,98870.25
2023-04-25T05:29:47.376Z,98867.28
2023-04-25T05:31:19.493Z,98868.56
2023-04-25T05:32:51.951Z,98866.41
2023-04-25T05:34:24.088Z,98865.19
2023-04-25T05:35:56.298Z,98871.00
2023-04-25T05:37:28.409Z,98874.06
2023-04-25T05:39:00.550Z,98873.72
2023-04-25T05:40:32.664Z,98872.34
2023-04-25T05:42:05.311Z,98865.88
2023-04-25T05:43:39.868Z,98874.00
2023-04-25T05:45:12.162Z,98867.53
2023-04-25T05:46:44.350Z,98870.50
2023-04-25T05:48:16.437Z,98871.75
2023-04-25T05:49:51.206Z,98870.50
2023-04-25T05:51:23.574Z,98871.28
2023-04-25T05:52:55.686Z,98876.03
2023-04-25T05:54:27.808Z,98866.44
2023-04-25T05:55:59.889Z,98873.50
2023-04-25T05:57:32.363Z,98872.41
2023-04-25T05:59:04.771Z,98866.28
2023-04-25T06:00:37.010Z,98867.19
2023-04-25T06:02:12.444Z,98868.72
2023-04-25T06:03:44.963Z,98876.38
2023-04-25T06:05:17.660Z,98870.97
2023-04-25T06:06:49.898Z,98868.22
2023-04-25T06:08:21.989Z,98875.97
2023-04-25T06:09:54.838Z,98874.00
2023-04-25T06:11:26.879Z,98873.78
2023-04-25T06:12:58.941Z,98874.63
2023-04-25T06:14:31.875Z,98874.34
2023-04-25T06:16:04.195Z,98873.50
2023-04-25T06:17:36.773Z,98873.41
2023-04-25T06:19:09.061Z,98871.53
2023-04-25T06:20:41.226Z,98878.47
2023-04-25T06:22:16.033Z,98876.69
2023-04-25T06:23:48.208Z,98879.22
2023-04-25T06:25:20.308Z,98877.53
2023-04-25T06:26:52.440Z,98884.38
2023-04-25T06:28:25.750Z,98879.22
2023-04-25T06:29:57.711Z,98881.41
2023-04-25T06:31:30.512Z,98878.88
2023-04-25T06:33:02.816Z,98877.94
2023-04-25T06:34:34.958Z,98879.72
2023-04-25T06:36:07.306Z,98885.53
2023-04-25T06:37:39.404Z,98890.00
2023-04-25T06:39:12.078Z,98884.66
2023-04-25T06:40:46.772Z,98884.44
2023-04-25T06:42:18.822Z,98884.28
2023-04-25T06:43:51.012Z,98877.19
2023-04-25T06:45:23.148Z,98877.88
2023-04-25T06:46:55.308Z,98874.16
2023-04-25T06:48:28.710Z,98881.44
2023-04-25T06:50:00.697Z,98872.97
2023-04-25T06:51:32.949Z,98873.91
2023-04-25T06:53:05.187Z,98866.47
2023-04-25T06:54:37.263Z,98871.50
2023-04-25T06:56:09.362Z,98877.31
2023-04-25T06:57:41.697Z,98876.00
2023-04-25T06:59:13.890Z,98879.22
2023-04-25T07:00:46.189Z,98877.88
2023-04-25T07:02:18.438Z,98878.28
2023-04-25T07:03:50.903Z,98882.47
2023-04-25T07:05:23.169Z,98879.41
2023-04-25T07:06:56.233Z,98876.22
2023-04-25T07:08:28.463Z,98876.59
2023-04-25T07:10:00.663Z,98867.44
2023-04-25T07:11:32.774Z,98872.88
2023-04-25T07:13:05.352Z,98878.28
2023-04-25T07:14:37.437Z,98878.00
2023-04-25T07:16:09.609Z,98880.31
2023-04-25T07:17:41.807Z,98873.00
2023-04-25T07:19:13.919Z,98875.97
2023-04-25T07:20:46.037Z,98880.56
2023-04-25T07:22:18.506Z,98871.03
2023-04-25T07:23:50.686Z,98873.09
2023-04-25T07:25:22.749Z,98876.63
2023-04-25T07:26:54.878Z,98872.69
2023-04-25T07:28:27.100Z,98870.81
2023-04-25T07:29:59.395Z,98869.84
2023-04-25T07:31:31.636Z,98867.53
2023-04-25T07:33:03.991Z,98863.34
2023-04-25T07:34:38.751Z,98876.97
2023-04-25T07:36:10.830Z,98881.47
2023-04-25T07:37:43.028Z,98874.56
2023-04-25T07:39:15.241Z,98874.03
2023-04-25T07:40:47.422Z,98878.44
2023-04-25T07:42:19.529Z,98873.94
2023-04-25T07:43:51.628Z,98883.16
2023-04-25T07:45:23.722Z,98882.13
2023-04-25T07:46:56.007Z,98880.81
2023-04-25T07:48:28.137Z,98886.94
2023-04-25T07:50:00.279Z,98886.28
2023-04-25T07:51:32.957Z,98891.91
2023-04-25T07:53:05.352Z,98882.91
2023-04-25T07:54:37.600Z,98886.38
2023-04-25T07:56:10.620Z,98877.97
2023-04-25T07:57:42.718Z,98882.19
2023-04-25T07:59:14.901Z,98884.69
2023-04-25T08:00:47.112Z,98879.47
2023-04-25T08:02:19.182Z,98882.81
2023-04-25T08:03:51.495Z,98883.00
2023-04-25T08:05:24.030Z,98881.22
2023-04-25T08:06:56.313Z,98881.13
2023-04-25T08:08:28.641Z,98880.94
2023-04-25T08:10:00.777Z,98883.16
2023-04-25T08:11:32.903Z,98872.56
2023-04-25T08:13:04.991Z,98870.09
2023-04-25T08:14:38.582Z,98876.53
2023-04-25T08:16:10.879Z,98874.25
2023-04-25T08:17:43.210Z,98876.56
2023-04-25T08:19:15.316Z,98878.88
2023-04-25T08:20:47.517Z,98878.38
2023-04-25T08:22:19.609Z,98875.94
2023-04-25T08:23:51.693Z,98879.75
2023-04-25T08:25:23.829Z,98880.34
2023-04-25T08:26:56.802Z,98876.50
2023-04-25T08:28:28.971Z,98868.44
2023-04-25T08:30:01.135Z,98871.16
2023-04-25T08:31:33.690Z,98870.09
2023-04-25T08:33:06.172Z,98875.34
2023-04-25T08:34:40.121Z,98875.56
2023-04-25T08:36:12.389Z,98879.75
2023-04-25T08:37:44.556Z,98882.38
2023-04-25T08:39:16.760Z,98883.09
2023-04-25T08:40:52.893Z,98881.81
2023-04-25T08:42:26.220Z,98877.63
2023-04-25T08:44:02.056Z,98881.63
2023-04-25T08:45:34.960Z,98879.94
2023-04-25T08:47:07.400Z,98880.06
2023-04-25T08:48:42.226Z,98886.34
2023-04-25T08:50:14.309Z,98878.47
2023-04-25T08:51:52.281Z,98879.34
2023-04-25T08:53:28.867Z,98886.34
2023-04-25T08:55:02.021Z,98888.34
2023-04-25T08:56:36.466Z,98888.53
2023-04-25T08:58:09.353Z,98889.69
2023-04-25T08:59:45.706Z,98888.34
2023-04-25T09:01:18.962Z,98883.91
2023-04-25T09:02:51.090Z,98876.56
2023-04-25T09:04:23.548Z,98881.56
2023-04-25T09:05:55.719Z,98879.25
2023-04-25T09:07:27.974Z,98877.38
2023-04-25T09:09:07.414Z,98872.22
2023-04-25T09:10:40.271Z,98869.41
2023-04-25T09:12:12.409Z,98870.34
2023-04-25T09:13:44.620Z,98865.75
2023-04-25T09:15:20.782Z,98865.44
2023-04-25T09:17:02.450Z,98870.47
2023-04-25T09:18:37.439Z,98855.41
2023-04-25T09:20:11.601Z,98857.38
2023-04-25T09:21:43.896Z,98855.19
2023-04-25T09:23:16.663Z,98845.66
2023-04-25T09:24:50.314Z,98847.75
2023-04-25T09:26:22.931Z,98844.59
2023-04-25T09:27:55.743Z,98856.03
2023-04-25T09:29:35.961Z,98855.50
2023-04-25T09:31:09.013Z,98855.09
2023-04-25T09:32:44.479Z,98852.78
2023-04-25T09:34:18.330Z,98859.81
2023-04-25T09:35:56.635Z,98854.75
2023-04-25T09:37:31.096Z,98861.91
2023-04-25T09:39:05.029Z,98856.34
2023-04-25T09:40:41.167Z,98853.91
2023-04-25T09:42:13.318Z,98856.84
2023-04-25T09:43:48.224Z,98852.75
2023-04-25T09:45:20.552Z,98858.31
2023-04-25T09:46:55.922Z,98863.34
2023-04-25T09:48:29.506Z,98862.41
2023-04-25T09:50:01.802Z,98858.50
2023-04-25T09:51:33.894Z,98857.75
2023-04-25T09:53:07.119Z,98859.38
2023-04-25T09:54:39.150Z,98859.44
2023-04-25T09:56:13.187Z,98856.75
2023-04-25T09:57:47.718Z,98856.84
2023-04-25T09:59:26.555Z,98857.63
2023-04-25T10:01:03.776Z,98852.38
2023-04-25T10:02:36.694Z,98844.59
2023-04-25T10:04:12.373Z,98848.53
2023-04-25T10:05:44.884Z,98846.09
2023-04-25T10:07:18.260Z,98852.31
2023-04-25T10:08:56.086Z,98848.63
2023-04-25T10:10:31.574Z,98848.97
2023-04-25T10:12:05.062Z,98854.22
2023-04-25T10:13:37.696Z,98850.78
2023-04-25T10:15:10.423Z,98845.13
2023-04-25T10:16:43.212Z,98842.28
2023-04-25T10:18:15.597Z,98836.72
2023-04-25T10:19:49.104Z,98835.56
2023-04-25T10:21:23.494Z,98837.78
2023-04-25T10:22:57.944Z,98838.41
2023-04-25T10:24:30.161Z,98839.66
2023-04-25T10:26:02.553Z,98829.41
2023-04-25T10:27:36.064Z,98829.41
2023-04-25T10:29:08.170Z,98830.00
2023-04-25T10:31:09.504Z,98827.78
2023-04-25T10:32:43.437Z,98827.06
2023-04-25T10:34:15.522Z,98825.06
2023-04-25T10:35:47.666Z,98814.69
2023-04-25T10:37:20.831Z,98820.06
2023-04-25T10:38:53.167Z,98821.81
2023-04-25T10:40:25.489Z,98822.56
2023-04-25T10:41:58.728Z,98822.56
2023-04-25T10:43:33.455Z,98820.34
2023-04-25T10:45:09.325Z,98813.84
2023-04-25T10:46:41.818Z,98812.91
2023-04-25T10:48:27.335Z,98804.47
2023-04-25T10:50:06.547Z,98805.59
2023-04-25T10:51:54.464Z,98802.84
2023-04-25T10:53:32.553Z,98805.44
2023-04-25T10:55:05.592Z,98796.88
2023-04-25T10:56:37.657Z,98802.31
2023-04-25T10:58:09.750Z,98805.13
2023-04-25T10:59:44.509Z,98795.47
2023-04-25T11:01:29.759Z,98796.72
2023-04-25T11:03:02.537Z,98793.94
2023-04-25T11:04:35.627Z,98795.72
2023-04-25T11:06:33.317Z,98792.84
2023-04-25T11:08:11.385Z,98795.47
2023-04-25T11:09:43.556Z,98785.31
2023-04-25T11:11:16.574Z,98784.31
2023-04-25T11:12:49.094Z,98775.00
2023-04-25T11:14:21.844Z,98777.56
2023-04-25T11:16:03.173Z,98768.84
2023-04-25T11:17:47.818Z,98775.19
2023-04-25T11:19:21.936Z,98782.88
2023-04-25T11:20:54.290Z,98784.13
2023-04-25T11:22:28.230Z,98782.84
2023-04-25T11:24:00.915Z,98788.41
2023-04-25T11:25:33.720Z,98786.78
2023-04-25T11:27:07.562Z,98786.88
2023-04-25T11:28:39.688Z,98785.66
2023-04-25T11:30:16.929Z,98786.50
2023-04-25T11:31:49.273Z,98791.06
2023-04-25T11:33:25.903Z,98782.56
2023-04-25T11:34:59.206Z,98795.78
2023-04-25T11:36:32.204Z,98796.09
2023-04-25T11:38:04.352Z,98801.47
2023-04-25T11:39:36.541Z,98795.91
2023-04-25T11:41:08.786Z,98792.75
2023-04-25T11:42:44.815Z,98792.66
2023-04-25T11:44:18.007Z,98799.16
2023-04-25T11:45:52.184Z,98789.59
2023-04-25T11:47:31.271Z,98789.09
2023-04-25T11:49:03.982Z,98790.31
2023-04-25T11:50:36.704Z,98776.94
2023-04-25T11:52:09.176Z,98775.25
2023-04-25T11:53:46.147Z,98776.16
2023-04-25T11:55:21.842Z,98778.06
2023-04-25T11:56:53.946Z,98772.41
2023-04-25T11:58:27.258Z,98776.06
2023-04-25T12:00:07.272Z,98776.56
2023-04-25T12:01:41.100Z,98789.66
2023-04-25T12:03:13.478Z,98787.22
2023-04-25T12:04:46.945Z,98790.63
2023-04-25T12:06:19.517Z,98793.56
2023-04-25T12:07:51.858Z,98798.75
2023-04-25T12:09:32.447Z,98811.72
2023-04-25T12:11:04.850Z,98814.06
2023-04-25T12:12:37.292Z,98828.59
2023-04-25T12:14:09.528Z,98846.25
2023-04-25T12:15:42.607Z,98869.78
2023-04-25T12:17:14.812Z,98883.97
2023-04-25T12:18:47.003Z,98902.38
2023-04-25T12:20:21.833Z,98905.28
2023-04-25T12:21:58.574Z,98916.94
2023-04-25T12:23:32.133Z,98918.06
2023-04-25T12:25:08.947Z,98929.59
2023-04-25T12:27:10.813Z,98915.81
2023-04-25T12:28:48.687Z,98914.00
2023-04-25T12:30:21.651Z,98926.06
2023-04-25T12:31:54.963Z,98910.84
2023-04-25T12:33:28.570Z,98916.97
2023-04-25T12:35:00.744Z,98921.28
2023-04-25T12:36:33.000Z,98924.38
2023-04-25T12:38:05.294Z,98931.81
2023-04-25T12:39:37.622Z,98936.91
2023-04-25T12:41:10.734Z,98941.28
2023-04-25T12:42:42.754Z,98946.72
2023-04-25T12:44:15.296Z,98942.06
2023-04-25T12:45:52.502Z,98933.22
2023-04-25T12:47:24.696Z,98931.09
2023-04-25T12:48:58.744Z,98933.94
2023-04-25T12:50:35.014Z,98927.81
2023-04-25T12:52:07.125Z,98920.91
2023-04-25T12:53:40.526Z,98918.59
2023-04-25T12:55:12.430Z,98909.97
2023-04-25T12:56:44.586Z,98912.78
2023-04-25T12:58:18.197Z,98921.50
2023-04-25T12:59:50.272Z,98920.44
2023-04-25T13:01:23.124Z,98931.38
2023-04-25T13:02:55.421Z,98928.72
2023-04-25T13:04:27.938Z,98936.47
2023-04-25T13:06:00.071Z,98945.75
2023-04-25T13:07:33.500Z,98956.00
2023-04-25T13:09:08.079Z,98970.72
2023-04-25T13:10:40.646Z,98975.94
2023-04-25T13:12:12.704Z,98982.41
2023-04-25T13:13:45.392Z,98975.59
2023-04-25T13:15:17.718Z,98973.25
2023-04-25T13:16:50.086Z,98974.97
2023-04-25T13:18:22.304Z,98972.78
2023-04-25T13:19:54.453Z,98980.59
2023-04-25T13:21:26.979Z,98977.09
2023-04-25T13:23:00.268Z,98977.03
2023-04-25T13:24:33.246Z,98965.75
2023-04-25T13:26:05.540Z,98956.38
2023-04-25T13:27:38.503Z,98954.56
2023-04-25T13:29:10.574Z,98950.56
2023-04-25T13:30:42.863Z,98950.56
2023-04-25T13:32:14.983Z,98952.34
2023-04-25T13:33:47.112Z,98944.56
2023-04-25T13:35:19.254Z,98937.53
2023-04-25T13:36:51.447Z,98926.16
2023-04-25T13:38:24.793Z,98924.53
2023-04-25T13:39:57.776Z,98925.78
2023-04-25T13:41:30.288Z,98925.34
2023-04-25T13:43:04.725Z,98911.31
2023-04-25T13:44:36.848Z,98914.00
2023-04-25T13:46:10.972Z,98904.59
2023-04-25T13:47:53.074Z,98904.59
2023-04-25T13:49:25.366Z,98906.13
2023-04-25T13:50:57.480Z,98908.03
2023-04-25T13:52:29.597Z,98902.91
2023-04-25T13:54:01.916Z,98906.91
2023-04-25T13:55:35.176Z,98907.66
2023-04-25T13:57:08.192Z,98898.78
2023-04-25T13:58:40.763Z,98897.28
2023-04-25T14:00:13.501Z,98903.47
2023-04-25T14:01:46.206Z,98893.16
2023-04-25T14:03:18.478Z,98899.78
2023-04-25T14:04:50.756Z,98900.84
2023-04-25T14:06:25.254Z,98899.63
2023-04-25T14:07:57.381Z,98900.63
2023-04-25T14:09:30.092Z,98898.84
2023-04-25T14:11:02.288Z,98908.47
2023-04-25T14:12:34.529Z,98901.47
2023-04-25T14:14:06.827Z,98899.69
2023-04-25T14:15:39.002Z,98902.22
2023-04-25T14:17:11.375Z,98904.59
2023-04-25T14:18:43.506Z,98902.66
2023-04-25T14:20:15.728Z,98898.97
2023-04-25T14:21:48.158Z,98894.16
2023-04-25T14:23:20.450Z,98902.16
2023-04-25T14:24:52.542Z,98907.00
2023-04-25T14:26:24.656Z,98902.97
2023-04-25T14:27:56.755Z,98906.09
2023-04-25T14:29:28.858Z,98904.81
2023-04-25T14:31:02.073Z,98899.28
2023-04-25T14:32:34.254Z,98898.59
2023-04-25T14:34:06.903Z,98895.16
2023-04-25T14:35:39.381Z,98891.69
2023-04-25T14:37:11.483Z,98898.59
2023-04-25T14:38:43.673Z,98895.06
2023-04-25T14:40:16.744Z,98898.25
2023-04-25T14:41:48.945Z,98896.47
2023-04-25T14:43:21.203Z,98895.22
2023-04-25T14:44:53.336Z,98893.03
2023-04-25T14:46:25.623Z,98883.94
2023-04-25T14:47:57.825Z,98879.94
2023-04-25T14:49:29.947Z,98874.84
2023-04-25T14:51:02.452Z,98861.25
2023-04-25T14:52:34.632Z,98865.06
2023-04-25T14:54:06.776Z,98860.41
2023-04-25T14:55:38.986Z,98856.88
2023-04-25T14:57:11.117Z,98856.50
2023-04-25T14:58:43.192Z,98851.19
2023-04-25T15:00:20.638Z,98856.22
2023-04-25T15:01:53.350Z,98853.88
2023-04-25T15:03:25.774Z,98857.91
2023-04-25T15:04:58.072Z,98848.66
2023-04-25T15:06:31.662Z,98854.28
2023-04-25T15:08:03.920Z,98846.53
2023-04-25T15:09:36.277Z,98839.59
2023-04-25T15:11:08.458Z,98838.22
2023-04-25T15:12:46.881Z,98839.31
2023-04-25T15:14:19.752Z,98830.72
2023-04-25T15:15:52.574Z,98827.00
2023-04-25T15:17:24.749Z,98824.75
2023-04-25T15:18:56.898Z,98831.94
2023-04-25T15:20:29.032Z,98824.38
2023-04-25T15:22:02.778Z,98823.91
2023-04-25T15:23:34.877Z,98824.47
2023-04-25T15:25:09.172Z,98815.41
2023-04-25T15:26:41.297Z,98812.41
2023-04-25T15:28:16.328Z,98813.72
2023-04-25T15:29:48.589Z,98809.88
2023-04-25T15:31:21.408Z,98800.72
2023-04-25T15:32:53.708Z,98808.75
2023-04-25T15:34:25.925Z,98806.25
2023-04-25T15:35:59.232Z,98808.84
2023-04-25T15:37:31.840Z,98806.78
2023-04-25T15:39:04.143Z,98807.25
2023-04-25T15:40:36.315Z,98800.50
2023-04-25T15:42:08.916Z,98802.38
2023-04-25T15:43:41.201Z,98800.88
2023-04-25T15:45:13.293Z,98802.75
2023-04-25T15:46:46.220Z,98809.06
2023-04-25T15:48:18.288Z,98799.56
2023-04-25T15:49:50.421Z,98795.00
2023-04-25T15:51:22.604Z,98800.25
2023-04-25T15:52:54.873Z,98793.41
2023-04-25T15:54:27.050Z,98797.03
2023-04-25T15:55:59.239Z,98790.06
2023-04-25T15:57:33.371Z,98800.69
2023-04-25T17:02:27.452Z,98816.28
2023-04-25T17:04:00.444Z,98821.66
2023-04-25T17:05:35.773Z,98814.59
2023-04-25T17:07:08.805Z,98820.81
2023-04-25T17:08:41.670Z,98824.38
2023-04-25T17:10:13.841Z,98822.66
2023-04-25T17:11:46.042Z,98822.75
2023-04-25T17:13:18.193Z,98825.53
2023-04-25T17:14:50.771Z,98835.03
2023-04-25T17:16:25.729Z,98828.22
2023-04-25T17:17:57.997Z,98834.44
2023-04-25T17:19:31.872Z,98831.09
2023-04-25T17:21:04.892Z,98840.75
2023-04-25T17:22:37.693Z,98840.00
2023-04-25T17:24:10.295Z,98847.06
2023-04-25T17:25:42.455Z,98837.69
2023-04-25T17:27:14.665Z,98843.78
2023-04-25T17:28:50.025Z,98847.34
2023-04-25T17:30:24.626Z,98845.44
2023-04-25T17:31:57.621Z,98851.72
2023-04-25T17:33:29.790Z,98853.38
2023-04-25T17:35:02.016Z,98858.69
2023-04-25T17:36:34.122Z,98862.16
2023-04-25T17:38:06.391Z,98859.63
2023-04-25T17:39:38.567Z,98868.34
2023-04-25T17:41:11.128Z,98871.91
2023-04-25T17:42:43.693Z,98870.19
2023-04-25T17:44:15.844Z,98867.69
2023-04-25T17:45:48.096Z,98870.38
2023-04-25T17:47:20.230Z,98875.75
2023-04-25T17:48:52.666Z,98882.81
2023-04-25T17:50:25.303Z,98879.50
2023-04-25T17:51:57.430Z,98882.25
2023-04-25T17:53:29.587Z,98881.50
2023-04-25T17:55:01.770Z,98882.50
2023-04-25T17:56:36.872Z,98881.59
2023-04-25T17:58:09.040Z,98893.16
2023-04-25T17:59:41.203Z,98897.69
2023-04-25T18:01:13.348Z,98891.72
2023-04-25T18:02:47.637Z,98897.09
2023-04-25T18:04:19.933Z,98902.38
2023-04-25T18:05:52.144Z,98894.63
2023-04-25T18:07:24.299Z,98900.78
2023-04-25T18:08:57.639Z,98900.78
2023-04-25T18:10:29.654Z,98906.56
2023-04-25T18:12:02.548Z,98906.81
2023-04-25T18:13:34.672Z,98905.34
2023-04-25T18:15:07.651Z,98907.97
2023-04-25T18:16:39.874Z,98906.41
2023-04-25T18:18:20.188Z,98909.13
2023-04-25T18:19:52.501Z,98908.44
2023-04-25T18:21:24.823Z,98905.06
2023-04-25T18:22:56.919Z,98905.13
2023-04-25T18:24:29.088Z,98907.03
2023-04-25T18:26:01.583Z,98905.34
2023-04-25T18:27:33.738Z,98906.25
2023-04-25T18:29:07.626Z,98903.81
2023-04-25T18:30:39.818Z,98913.47
2023-04-25T18:32:12.243Z,98913.63
2023-04-25T18:33:44.926Z,98911.94
2023-04-25T18:35:17.511Z,98908.56
2023-04-25T18:36:49.645Z,98910.47
2023-04-25T18:38:34.884Z,98914.00
2023-04-25T18:40:10.513Z,98916.66
2023-04-25T18:41:55.219Z,98916.06
2023-04-25T18:43:32.465Z,98926.53
2023-04-25T18:45:05.884Z,98923.94
2023-04-25T18:46:38.163Z,98922.81
2023-04-25T18:48:10.394Z,98925.59
2023-04-25T18:49:42.704Z,98921.16
2023-04-25T18:51:15.131Z,98916.06
2023-04-25T18:52:47.256Z,98931.50
2023-04-25T18:54:19.436Z,98932.44
2023-04-25T18:55:51.676Z,98923.00
2023-04-25T18:57:23.826Z,98936.13
2023-04-25T18:58:56.771Z,98930.81
2023-04-25T19:00:29.624Z,98934.41
2023-04-25T19:02:05.768Z,98926.66
2023-04-25T19:03:38.597Z,98930.19
2023-04-25T19:05:11.692Z,98935.41
2023-04-25T19:06:43.897Z,98936.31
2023-04-25T19:08:16.040Z,98932.88
2023-04-25T19:09:48.280Z,98937.19
2023-04-25T19:11:21.936Z,98937.19
2023-04-25T19:12:54.397Z,98933.81
2023-04-25T19:14:28.043Z,98934.69
2023-04-25T19:16:00.112Z,98939.00
2023-04-25T19:17:32.440Z,98941.50
2023-04-25T19:19:08.138Z,98942.28